Batavia, OH

3:50 AM EDT on August 31, 2016 (GMT -0400)
Clermont County, Batavia

Weather History for KI69 - February, 2014

Change the Weather History Date:

Saturday, February 15, 2014

  Actual Average (KLUK) Record (KLUK)
Temperature  
Mean Temperature 26 °F -  
Max Temperature 30 °F 44 °F 70 °F (1976)
Min Temperature 21 °F 27 °F 1 °F (2007)
Degree Days  
Heating Degree Days 40    
Moisture  
Dew Point 18 °F    
Average Humidity 77    
Maximum Humidity 93    
Minimum Humidity 55    
Precipitation  
Precipitation 0.00 in - - ()
Sea Level Pressure  
Sea Level Pressure 30.01 in    
Wind  
Wind Speed 8 mph (WNW)    
Max Wind Speed 14 mph    
Max Gust Speed 20 mph    
Visibility 9 miles    
Events Snow    
Averages and records for this station are not official NWS values.
T = Trace of Precipitation, MM = Missing Value Source: NWS Daily Summary

Daily Weather History Graph

Daily Weather History Graph

Search for Another Location

Airport or City:

Trip Planner

Search our weather history database for the weather conditions in past years. The results will help you decide how hot, cold, wet, or windy it might be!

Date:

Astronomy

Feb. 15, 2014 Rise Set
Actual Time 7:28 AM EST 6:14 PM EST
Civil Twilight 7:00 AM EST 6:41 PM EST
Nautical Twilight 6:29 AM EST 7:12 PM EST
Astronomical Twilight 5:58 AM EST 7:43 PM EST
Moon 7:12 PM EST (2/15) 7:27 AM EST (2/15)
Length of Visible Light 11h 40m
Length of Day
10h 45m
Full, 100% of the Moon is Illuminated
Feb 15
Full
Feb 22
Last Quarter
Mar 1
New
Mar 8
First Quarter
Mar 16
Full

Hourly Weather History & Observations

Time (EST) Temp. Windchill Dew Point Humidity Pressure Visibility Wind Dir Wind Speed Gust Speed Precip Events Conditions
12:16 AM 24.8 °F 14.6 °F 21.2 °F 86% 29.76 in 3.0 mi NNW 10.4 mph - N/A Snow Light Snow
12:36 AM 23.0 °F 10.6 °F 21.2 °F 93% 29.77 in 4.0 mi North 13.8 mph 18.4 mph N/A Snow Light Snow
12:56 AM 23.0 °F 13.1 °F 21.2 °F 93% 29.78 in 4.0 mi North 9.2 mph - N/A Snow Light Snow
1:16 AM 23.0 °F 12.4 °F 21.2 °F 93% 29.79 in 3.0 mi North 10.4 mph - N/A Snow Light Snow
1:36 AM 23.0 °F 13.9 °F 21.2 °F 93% 29.80 in 4.0 mi NNW 8.1 mph - N/A Snow Light Snow
1:56 AM 23.0 °F 13.9 °F 21.2 °F 93% 29.80 in 2.5 mi NNW 8.1 mph - N/A Snow Light Snow
2:16 AM 23.0 °F 13.9 °F 21.2 °F 93% 29.80 in 2.5 mi NNW 8.1 mph - N/A Snow Light Snow
2:36 AM 23.0 °F 13.9 °F 21.2 °F 93% 29.81 in 5.0 mi NNW 8.1 mph - N/A Snow Light Snow
2:56 AM 23.0 °F 14.7 °F 21.2 °F 93% 29.83 in 7.0 mi NW 6.9 mph - N/A   Overcast
3:16 AM 23.0 °F 13.1 °F 19.4 °F 86% 29.84 in 10.0 mi NW 9.2 mph - N/A   Overcast
3:36 AM 23.0 °F 11.1 °F 19.4 °F 86% 29.84 in 10.0 mi NNW 12.7 mph 18.4 mph N/A   Overcast
3:56 AM 23.0 °F 11.1 °F 17.6 °F 80% 29.85 in 10.0 mi NNW 12.7 mph - N/A   Overcast
4:16 AM 23.0 °F 11.7 °F 17.6 °F 80% 29.87 in 10.0 mi NW 11.5 mph - N/A Snow Light Snow
4:36 AM 21.2 °F 9.5 °F 17.6 °F 86% 29.88 in 10.0 mi NW 11.5 mph 19.6 mph N/A   Overcast
4:56 AM 21.2 °F 10.1 °F 17.6 °F 86% 29.90 in 10.0 mi NW 10.4 mph - N/A   Overcast
5:16 AM 21.2 °F 10.9 °F 17.6 °F 86% 29.92 in 7.0 mi NW 9.2 mph - N/A Snow Light Snow
5:36 AM 21.2 °F 10.9 °F 17.6 °F 86% 29.93 in 5.0 mi NW 9.2 mph - N/A Snow Light Snow
5:56 AM 21.2 °F 10.1 °F 17.6 °F 86% 29.95 in 5.0 mi NW 10.4 mph - N/A Snow Light Snow
6:16 AM 21.2 °F 10.9 °F 17.6 °F 86% 29.96 in 7.0 mi NW 9.2 mph - N/A Snow Light Snow
6:36 AM 21.2 °F 11.7 °F 17.6 °F 86% 29.97 in 1.5 mi WNW 8.1 mph - N/A Snow Light Snow
6:56 AM 21.2 °F 10.9 °F 17.6 °F 86% 29.98 in 7.0 mi WNW 9.2 mph - N/A Snow Light Snow
7:16 AM 23.0 °F 13.1 °F 19.4 °F 86% 29.99 in 10.0 mi WNW 9.2 mph - N/A Snow Light Snow
7:36 AM 23.0 °F 11.1 °F 17.6 °F 80% 29.99 in 10.0 mi NW 12.7 mph - N/A Snow Light Snow
7:56 AM 23.0 °F 12.4 °F 17.6 °F 80% 30.00 in 10.0 mi NW 10.4 mph - N/A Snow Light Snow
8:16 AM 23.0 °F 12.4 °F 17.6 °F 80% 30.01 in 10.0 mi NW 10.4 mph - N/A Snow Light Snow
8:36 AM 23.0 °F 13.9 °F 17.6 °F 80% 30.02 in 10.0 mi NNW 8.1 mph - N/A Snow Light Snow
8:56 AM 21.2 °F 10.9 °F 17.6 °F 86% 30.03 in 10.0 mi NNW 9.2 mph - N/A Snow Light Snow
9:16 AM 21.2 °F 11.7 °F 17.6 °F 86% 30.05 in 10.0 mi WNW 8.1 mph - N/A   Mostly Cloudy
9:36 AM 21.2 °F 12.6 °F 17.6 °F 86% 30.05 in 10.0 mi WNW 6.9 mph - N/A   Overcast
9:56 AM 23.0 °F 18.4 °F 17.6 °F 80% 30.06 in 10.0 mi NNW 3.5 mph - N/A   Overcast
10:16 AM 23.0 °F 13.9 °F 17.6 °F 80% 30.06 in 10.0 mi NW 8.1 mph - N/A   Overcast
10:36 AM 24.8 °F 16.9 °F 17.6 °F 74% 30.06 in 10.0 mi NNW 6.9 mph - N/A   Mostly Cloudy
10:56 AM 24.8 °F 20.5 °F 17.6 °F 74% 30.07 in 10.0 mi North 3.5 mph - N/A   Mostly Cloudy
11:16 AM 26.6 °F 19.1 °F 15.8 °F 64% 30.07 in 10.0 mi North 6.9 mph - N/A   Scattered Clouds
11:36 AM 26.6 °F 19.1 °F 17.6 °F 69% 30.08 in 10.0 mi North 6.9 mph - N/A   Mostly Cloudy
11:56 AM 26.6 °F 16.8 °F 17.6 °F 69% 30.10 in 10.0 mi NW 10.4 mph - N/A   Mostly Cloudy
12:16 PM 26.6 °F 21.2 °F 15.8 °F 64% 30.10 in 10.0 mi West 4.6 mph - N/A   Overcast
12:36 PM 28.4 °F 19.7 °F 15.8 °F 59% 30.08 in 10.0 mi WNW 9.2 mph - N/A   Overcast
12:57 PM 28.4 °F 19.7 °F 17.6 °F 64% 30.08 in 10.0 mi West 9.2 mph - N/A   Overcast
1:16 PM 28.4 °F 20.4 °F 17.6 °F 64% 30.08 in 10.0 mi West 8.1 mph - N/A   Overcast
1:36 PM 28.4 °F 23.3 °F 15.8 °F 59% 30.08 in 10.0 mi West 4.6 mph - N/A   Overcast
1:56 PM 28.4 °F 20.4 °F 15.8 °F 59% 30.07 in 10.0 mi NW 8.1 mph - N/A   Overcast
2:16 PM 28.4 °F 19.7 °F 15.8 °F 59% 30.07 in 10.0 mi West 9.2 mph - N/A   Overcast
2:36 PM 30.2 °F 24.3 °F 17.6 °F 60% 30.08 in 10.0 mi West 5.8 mph - N/A   Overcast
2:56 PM 30.2 °F 21.3 °F 17.6 °F 60% 30.09 in 10.0 mi West 10.4 mph - N/A   Overcast
3:16 PM 30.2 °F 24.3 °F 15.8 °F 55% 30.07 in 10.0 mi West 5.8 mph - N/A   Overcast
3:36 PM 30.2 °F 24.3 °F 17.6 °F 60% 30.08 in 10.0 mi West 5.8 mph - N/A   Overcast
3:56 PM 30.2 °F 23.4 °F 17.6 °F 60% 30.08 in 10.0 mi West 6.9 mph - N/A   Mostly Cloudy
4:16 PM 30.2 °F 22.6 °F 17.6 °F 60% 30.08 in 10.0 mi WSW 8.1 mph - N/A   Scattered Clouds
4:36 PM 30.2 °F 21.9 °F 17.6 °F 60% 30.08 in 10.0 mi WSW 9.2 mph - N/A   Mostly Cloudy
4:56 PM 30.2 °F 21.9 °F 17.6 °F 60% 30.09 in 10.0 mi WSW 9.2 mph - N/A   Mostly Cloudy
5:16 PM 30.2 °F 22.6 °F 17.6 °F 60% 30.09 in 10.0 mi WSW 8.1 mph - N/A   Overcast
5:36 PM 30.2 °F 21.3 °F 17.6 °F 60% 30.10 in 10.0 mi WSW 10.4 mph - N/A   Overcast
5:56 PM 28.4 °F 21.2 °F 19.4 °F 69% 30.10 in 10.0 mi SW 6.9 mph - N/A   Mostly Cloudy
6:16 PM 28.4 °F 22.2 °F 19.4 °F 69% 30.10 in 10.0 mi SW 5.8 mph - N/A   Scattered Clouds
6:36 PM 28.4 °F 22.2 °F 19.4 °F 69% 30.10 in 10.0 mi SW 5.8 mph - N/A   Clear
6:56 PM 28.4 °F 22.2 °F 19.4 °F 69% 30.10 in 10.0 mi SW 5.8 mph - N/A   Clear
7:16 PM 26.6 °F 19.1 °F 19.4 °F 74% 30.09 in 10.0 mi SW 6.9 mph - N/A   Clear
7:36 PM 26.6 °F 20.0 °F 19.4 °F 74% 30.10 in 10.0 mi SW 5.8 mph - N/A   Clear
7:56 PM 26.6 °F 21.2 °F 19.4 °F 74% 30.10 in 10.0 mi SW 4.6 mph - N/A   Clear
8:16 PM 26.6 °F - 19.4 °F 74% 30.08 in 10.0 mi Calm Calm - N/A   Clear
8:36 PM 24.8 °F 20.5 °F 19.4 °F 80% 30.07 in 10.0 mi South 3.5 mph - N/A   Clear
8:56 PM 23.0 °F - 19.4 °F 86% 30.07 in 10.0 mi Calm Calm - N/A   Clear
9:16 PM 23.0 °F - 19.4 °F 86% 30.07 in 10.0 mi Calm Calm - N/A   Scattered Clouds
9:36 PM 23.0 °F - 19.4 °F 86% 30.07 in 10.0 mi Calm Calm - N/A   Scattered Clouds
9:56 PM 24.8 °F - 19.4 °F 80% 30.07 in 10.0 mi Calm Calm - N/A   Mostly Cloudy
10:16 PM 23.0 °F - 19.4 °F 86% 30.08 in 10.0 mi Calm Calm - N/A   Overcast
10:37 PM 23.0 °F - 19.4 °F 86% 30.08 in 10.0 mi Calm Calm - N/A   Overcast
10:56 PM 23.0 °F - 19.4 °F 86% 30.08 in 10.0 mi Calm Calm - N/A   Overcast
11:16 PM 23.0 °F - 19.4 °F 86% 30.07 in 10.0 mi Calm Calm - N/A   Overcast
11:37 PM 23.0 °F - 19.4 °F 86% 30.06 in 10.0 mi Calm Calm - N/A   Overcast
11:56 PM 23.0 °F - 19.4 °F 86% 30.05 in 10.0 mi Calm Calm - N/A   Overcast